sensor_id;sensor_type;location;lat;lon;timestamp;temperature;humidity
18191;DHT22;47004;51.366;12.348;2023-04-25T00:00:07;7.80;99.90
18191;DHT22;47004;51.366;12.348;2023-04-25T00:02:11;7.80;99.90
18191;DHT22;47004;51.366;12.348;2023-04-25T00:04:13;7.80;99.90
18191;DHT22;47004;51.366;12.348;2023-04-25T00:06:15;7.80;99.90
18191;DHT22;47004;51.366;12.348;2023-04-25T00:08:18;7.80;99.90
18191;DHT22;47004;51.366;12.348;2023-04-25T00:10:20;7.80;99.90
18191;DHT22;47004;51.366;12.348;2023-04-25T00:12:22;7.80;99.90
18191;DHT22;47004;51.366;12.348;2023-04-25T00:14:24;7.70;99.90
18191;DHT22;47004;51.366;12.348;2023-04-25T00:16:26;7.90;99.90
18191;DHT22;47004;51.366;12.348;2023-04-25T00:18:30;7.80;99.90
18191;DHT22;47004;51.366;12.348;2023-04-25T00:20:33;7.80;99.90
18191;DHT22;47004;51.366;12.348;2023-04-25T00:22:36;7.80;99.90
18191;DHT22;47004;51.366;12.348;2023-04-25T00:24:38;7.80;99.90
18191;DHT22;47004;51.366;12.348;2023-04-25T00:26:40;7.80;99.90
18191;DHT22;47004;51.366;12.348;2023-04-25T00:28:42;7.80;99.90
18191;DHT22;47004;51.366;12.348;2023-04-25T00:30:44;7.80;99.90
18191;DHT22;47004;51.366;12.348;2023-04-25T00:32:46;7.70;99.90
18191;DHT22;47004;51.366;12.348;2023-04-25T00:34:50;7.70;99.90
18191;DHT22;47004;51.366;12.348;2023-04-25T00:36:52;7.70;99.90
18191;DHT22;47004;51.366;12.348;2023-04-25T00:38:54;7.70;99.90
18191;DHT22;47004;51.366;12.348;2023-04-25T00:40:56;7.70;99.90
18191;DHT22;47004;51.366;12.348;2023-04-25T00:42:58;7.60;99.90
18191;DHT22;47004;51.366;12.348;2023-04-25T00:45:01;7.60;99.90
18191;DHT22;47004;51.366;12.348;2023-04-25T00:47:02;7.50;99.90
18191;DHT22;47004;51.366;12.348;2023-04-25T00:49:05;7.50;99.90
18191;DHT22;47004;51.366;12.348;2023-04-25T00:51:09;7.50;99.90
18191;DHT22;47004;51.366;12.348;2023-04-25T00:53:13;7.50;99.90
18191;DHT22;47004;51.366;12.348;2023-04-25T00:55:15;7.40;99.90
18191;DHT22;47004;51.366;12.348;2023-04-25T00:57:17;7.40;99.90
18191;DHT22;47004;51.366;12.348;2023-04-25T00:59:19;7.40;99.90
18191;DHT22;47004;51.366;12.348;2023-04-25T01:01:22;7.40;99.90
18191;DHT22;47004;51.366;12.348;2023-04-25T01:03:24;7.30;99.90
18191;DHT22;47004;51.366;12.348;2023-04-25T01:05:26;7.30;99.90
18191;DHT22;47004;51.366;12.348;2023-04-25T01:07:29;7.30;99.90
18191;DHT22;47004;51.366;12.348;2023-04-25T01:09:31;7.30;99.90
18191;DHT22;47004;51.366;12.348;2023-04-25T01:11:33;7.30;99.90
18191;DHT22;47004;51.366;12.348;2023-04-25T01:13:35;7.20;99.90
18191;DHT22;47004;51.366;12.348;2023-04-25T01:15:37;7.20;99.90
18191;DHT22;47004;51.366;12.348;2023-04-25T01:17:40;7.20;99.90
18191;DHT22;47004;51.366;12.348;2023-04-25T01:19:43;7.20;99.90
18191;DHT22;47004;51.366;12.348;2023-04-25T01:21:48;7.20;99.90
18191;DHT22;47004;51.366;12.348;2023-04-25T01:23:50;7.10;99.90
18191;DHT22;47004;51.366;12.348;2023-04-25T01:25:52;7.10;99.90
18191;DHT22;47004;51.366;12.348;2023-04-25T01:27:54;7.00;99.90
18191;DHT22;47004;51.366;12.348;2023-04-25T01:29:56;7.00;99.90
18191;DHT22;47004;51.366;12.348;2023-04-25T01:31:59;7.00;99.90
18191;DHT22;47004;51.366;12.348;2023-04-25T01:34:01;6.90;99.90
18191;DHT22;47004;51.366;12.348;2023-04-25T01:36:04;6.90;99.90
18191;DHT22;47004;51.366;12.348;2023-04-25T01:38:07;6.90;99.90
18191;DHT22;47004;51.366;12.348;2023-04-25T01:40:11;6.80;99.90
18191;DHT22;47004;51.366;12.348;2023-04-25T01:42:13;6.80;99.90
18191;DHT22;47004;51.366;12.348;2023-04-25T01:44:15;6.80;99.90
18191;DHT22;47004;51.366;12.348;2023-04-25T01:46:17;6.80;99.90
18191;DHT22;47004;51.366;12.348;2023-04-25T01:48:19;6.70;99.90
18191;DHT22;47004;51.366;12.348;2023-04-25T01:50:22;6.70;99.90
18191;DHT22;47004;51.366;12.348;2023-04-25T01:52:24;6.70;99.90
18191;DHT22;47004;51.366;12.348;2023-04-25T01:54:27;6.60;99.90
18191;DHT22;47004;51.366;12.348;2023-04-25T01:56:32;6.60;99.90
18191;DHT22;47004;51.366;12.348;2023-04-25T01:58:34;6.60;99.90
18191;DHT22;47004;51.366;12.348;2023-04-25T02:00:36;6.50;99.90
18191;DHT22;47004;51.366;12.348;2023-04-25T02:02:39;6.50;99.90
18191;DHT22;47004;51.366;12.348;2023-04-25T02:04:41;6.50;99.90
18191;DHT22;47004;51.366;12.348;2023-04-25T02:06:43;6.50;99.90
18191;DHT22;47004;51.366;12.348;2023-04-25T02:08:44;6.50;99.90
18191;DHT22;47004;51.366;12.348;2023-04-25T02:10:48;6.40;99.90
18191;DHT22;47004;51.366;12.348;2023-04-25T02:12:50;6.40;99.90
18191;DHT22;47004;51.366;12.348;2023-04-25T02:14:52;6.40;99.90
18191;DHT22;47004;51.366;12.348;2023-04-25T02:16:53;6.30;99.90
18191;DHT22;47004;51.366;12.348;2023-04-25T02:18:55;6.30;99.90
18191;DHT22;47004;51.366;12.348;2023-04-25T02:20:58;6.30;99.90
18191;DHT22;47004;51.366;12.348;2023-04-25T02:22:59;6.30;99.90
18191;DHT22;47004;51.366;12.348;2023-04-25T02:25:02;6.30;99.90
18191;DHT22;47004;51.366;12.348;2023-04-25T02:27:06;6.30;99.90
18191;DHT22;47004;51.366;12.348;2023-04-25T02:29:09;6.30;99.90
18191;DHT22;47004;51.366;12.348;2023-04-25T02:31:11;6.30;99.90
18191;DHT22;47004;51.366;12.348;2023-04-25T02:33:13;6.30;99.90
18191;DHT22;47004;51.366;12.348;2023-04-25T02:35:17;6.20;99.90
18191;DHT22;47004;51.366;12.348;2023-04-25T02:37:19;6.20;99.90
18191;DHT22;47004;51.366;12.348;2023-04-25T02:39:21;6.20;99.90
18191;DHT22;47004;51.366;12.348;2023-04-25T02:41:25;6.20;99.90
18191;DHT22;47004;51.366;12.348;2023-04-25T02:43:28;6.10;99.90
18191;DHT22;47004;51.366;12.348;2023-04-25T02:45:30;6.10;99.90
18191;DHT22;47004;51.366;12.348;2023-04-25T02:47:32;6.10;99.90
18191;DHT22;47004;51.366;12.348;2023-04-25T02:49:34;6.10;99.90
18191;DHT22;47004;51.366;12.348;2023-04-25T02:51:36;6.10;99.90
18191;DHT22;47004;51.366;12.348;2023-04-25T02:53:38;6.10;99.90
18191;DHT22;47004;51.366;12.348;2023-04-25T02:55:39;6.10;99.90
18191;DHT22;47004;51.366;12.348;2023-04-25T02:57:41;6.10;99.90
18191;DHT22;47004;51.366;12.348;2023-04-25T02:59:45;6.10;99.90
18191;DHT22;47004;51.366;12.348;2023-04-25T03:01:46;6.10;99.90
18191;DHT22;47004;51.366;12.348;2023-04-25T03:03:48;6.10;99.90
18191;DHT22;47004;51.366;12.348;2023-04-25T03:05:50;6.00;99.90
18191;DHT22;47004;51.366;12.348;2023-04-25T03:07:52;6.00;99.90
18191;DHT22;47004;51.366;12.348;2023-04-25T03:09:54;6.00;99.90
18191;DHT22;47004;51.366;12.348;2023-04-25T03:11:57;5.90;99.90
18191;DHT22;47004;51.366;12.348;2023-04-25T03:13:59;6.00;99.90
18191;DHT22;47004;51.366;12.348;2023-04-25T03:16:02;5.90;99.90
18191;DHT22;47004;51.366;12.348;2023-04-25T03:18:04;5.90;99.90
18191;DHT22;47004;51.366;12.348;2023-04-25T03:20:07;5.90;99.90
18191;DHT22;47004;51.366;12.348;2023-04-25T03:22:09;5.90;99.90
18191;DHT22;47004;51.366;12.348;2023-04-25T03:24:11;5.90;99.90
18191;DHT22;47004;51.366;12.348;2023-04-25T03:26:13;5.80;99.90
18191;DHT22;47004;51.366;12.348;2023-04-25T03:28:15;5.80;99.90
18191;DHT22;47004;51.366;12.348;2023-04-25T03:30:17;5.80;99.90
18191;DHT22;47004;51.366;12.348;2023-04-25T03:32:20;5.80;99.90
18191;DHT22;47004;51.366;12.348;2023-04-25T03:34:23;5.70;99.90
18191;DHT22;47004;51.366;12.348;2023-04-25T03:36:24;5.70;99.90
18191;DHT22;47004;51.366;12.348;2023-04-25T03:38:26;5.70;99.90
18191;DHT22;47004;51.366;12.348;2023-04-25T03:40:28;5.60;99.90
18191;DHT22;47004;51.366;12.348;2023-04-25T03:42:30;5.60;99.90
18191;DHT22;47004;51.366;12.348;2023-04-25T03:44:32;5.60;99.90
18191;DHT22;47004;51.366;12.348;2023-04-25T03:46:34;5.60;99.90
18191;DHT22;47004;51.366;12.348;2023-04-25T03:48:37;5.60;99.90
18191;DHT22;47004;51.366;12.348;2023-04-25T03:50:40;5.50;99.90
18191;DHT22;47004;51.366;12.348;2023-04-25T03:52:42;5.50;99.90
18191;DHT22;47004;51.366;12.348;2023-04-25T03:54:44;5.50;99.90
18191;DHT22;47004;51.366;12.348;2023-04-25T03:56:46;5.50;99.90
18191;DHT22;47004;51.366;12.348;2023-04-25T03:58:49;5.50;99.90
18191;DHT22;47004;51.366;12.348;2023-04-25T04:00:51;5.50;99.90
18191;DHT22;47004;51.366;12.348;2023-04-25T04:02:52;5.40;99.90
18191;DHT22;47004;51.366;12.348;2023-04-25T04:04:56;5.40;99.90
18191;DHT22;47004;51.366;12.348;2023-04-25T04:07:00;5.40;99.90
18191;DHT22;47004;51.366;12.348;2023-04-25T04:09:03;5.40;99.90
18191;DHT22;47004;51.366;12.348;2023-04-25T04:11:05;5.40;99.90
18191;DHT22;47004;51.366;12.348;2023-04-25T04:13:06;5.40;99.90
18191;DHT22;47004;51.366;12.348;2023-04-25T04:15:09;5.30;99.90
18191;DHT22;47004;51.366;12.348;2023-04-25T04:17:12;5.40;99.90
18191;DHT22;47004;51.366;12.348;2023-04-25T04:19:14;5.40;99.90
18191;DHT22;47004;51.366;12.348;2023-04-25T04:21:17;5.40;99.90
18191;DHT22;47004;51.366;12.348;2023-04-25T04:23:19;5.30;99.90
18191;DHT22;47004;51.366;12.348;2023-04-25T04:25:23;5.30;99.90
18191;DHT22;47004;51.366;12.348;2023-04-25T04:27:25;5.30;99.90
18191;DHT22;47004;51.366;12.348;2023-04-25T04:29:28;5.30;99.90
18191;DHT22;47004;51.366;12.348;2023-04-25T04:31:30;5.30;99.90
18191;DHT22;47004;51.366;12.348;2023-04-25T04:33:33;5.30;99.90
18191;DHT22;47004;51.366;12.348;2023-04-25T04:35:35;5.30;99.90
18191;DHT22;47004;51.366;12.348;2023-04-25T04:37:38;5.30;99.90
18191;DHT22;47004;51.366;12.348;2023-04-25T04:39:40;5.30;99.90
18191;DHT22;47004;51.366;12.348;2023-04-25T04:41:42;5.30;99.90
18191;DHT22;47004;51.366;12.348;2023-04-25T04:43:44;5.30;99.90
18191;DHT22;47004;51.366;12.348;2023-04-25T04:45:46;5.30;99.90
18191;DHT22;47004;51.366;12.348;2023-04-25T04:47:48;5.30;99.90
18191;DHT22;47004;51.366;12.348;2023-04-25T04:49:50;5.30;99.90
18191;DHT22;47004;51.366;12.348;2023-04-25T04:51:51;5.30;99.90
18191;DHT22;47004;51.366;12.348;2023-04-25T04:53:56;5.30;99.90
18191;DHT22;47004;51.366;12.348;2023-04-25T04:56:02;5.30;99.90
18191;DHT22;47004;51.366;12.348;2023-04-25T04:58:05;5.30;99.90
18191;DHT22;47004;51.366;12.348;2023-04-25T05:00:08;5.30;99.90
18191;DHT22;47004;51.366;12.348;2023-04-25T05:02:11;5.30;99.90
18191;DHT22;47004;51.366;12.348;2023-04-25T05:04:13;5.30;99.90
18191;DHT22;47004;51.366;12.348;2023-04-25T05:06:15;5.30;99.90
18191;DHT22;47004;51.366;12.348;2023-04-25T05:08:17;5.30;99.90
18191;DHT22;47004;51.366;12.348;2023-04-25T05:10:21;5.40;99.90
18191;DHT22;47004;51.366;12.348;2023-04-25T05:12:23;5.40;99.90
18191;DHT22;47004;51.366;12.348;2023-04-25T05:14:25;5.40;99.90
18191;DHT22;47004;51.366;12.348;2023-04-25T05:16:26;5.40;99.90
18191;DHT22;47004;51.366;12.348;2023-04-25T05:18:28;5.40;99.90
18191;DHT22;47004;51.366;12.348;2023-04-25T05:20:30;5.40;99.90
18191;DHT22;47004;51.366;12.348;2023-04-25T05:22:32;5.50;99.90
18191;DHT22;47004;51.366;12.348;2023-04-25T05:24:34;5.40;99.90
18191;DHT22;47004;51.366;12.348;2023-04-25T05:26:37;5.50;99.90
18191;DHT22;47004;51.366;12.348;2023-04-25T05:28:39;5.50;99.90
18191;DHT22;47004;51.366;12.348;2023-04-25T05:30:42;5.50;99.90
18191;DHT22;47004;51.366;12.348;2023-04-25T05:32:43;5.60;99.90
18191;DHT22;47004;51.366;12.348;2023-04-25T05:34:47;5.60;99.90
18191;DHT22;47004;51.366;12.348;2023-04-25T05:36:49;5.60;99.90
18191;DHT22;47004;51.366;12.348;2023-04-25T05:38:50;5.60;99.90
18191;DHT22;47004;51.366;12.348;2023-04-25T05:40:52;5.70;99.90
18191;DHT22;47004;51.366;12.348;2023-04-25T05:42:56;5.70;99.90
18191;DHT22;47004;51.366;12.348;2023-04-25T05:44:57;5.80;99.90
18191;DHT22;47004;51.366;12.348;2023-04-25T05:46:59;5.80;99.90
18191;DHT22;47004;51.366;12.348;2023-04-25T05:49:01;5.80;99.90
18191;DHT22;47004;51.366;12.348;2023-04-25T05:51:03;5.80;99.90
18191;DHT22;47004;51.366;12.348;2023-04-25T05:53:05;5.90;99.90
18191;DHT22;47004;51.366;12.348;2023-04-25T05:55:08;6.00;99.90
18191;DHT22;47004;51.366;12.348;2023-04-25T05:57:19;6.00;99.90
18191;DHT22;47004;51.366;12.348;2023-04-25T05:59:23;6.00;99.90
18191;DHT22;47004;51.366;12.348;2023-04-25T06:01:25;6.10;99.90
18191;DHT22;47004;51.366;12.348;2023-04-25T06:03:27;6.10;99.90
18191;DHT22;47004;51.366;12.348;2023-04-25T06:05:28;6.20;99.90
18191;DHT22;47004;51.366;12.348;2023-04-25T06:07:30;6.20;99.90
18191;DHT22;47004;51.366;12.348;2023-04-25T06:09:32;6.20;99.90
18191;DHT22;47004;51.366;12.348;2023-04-25T06:11:34;6.30;99.90
18191;DHT22;47004;51.366;12.348;2023-04-25T06:13:36;6.30;99.90
18191;DHT22;47004;51.366;12.348;2023-04-25T06:15:39;6.30;99.90
18191;DHT22;47004;51.366;12.348;2023-04-25T06:17:41;6.40;99.90
18191;DHT22;47004;51.366;12.348;2023-04-25T06:19:43;6.40;99.90
18191;DHT22;47004;51.366;12.348;2023-04-25T06:21:45;6.40;99.90
18191;DHT22;47004;51.366;12.348;2023-04-25T06:23:47;6.50;99.90
18191;DHT22;47004;51.366;12.348;2023-04-25T06:25:49;6.50;99.90
18191;DHT22;47004;51.366;12.348;2023-04-25T06:27:51;6.60;99.90
18191;DHT22;47004;51.366;12.348;2023-04-25T06:29:56;6.70;99.90
18191;DHT22;47004;51.366;12.348;2023-04-25T06:31:59;6.80;99.90
18191;DHT22;47004;51.366;12.348;2023-04-25T06:34:01;6.90;99.90
18191;DHT22;47004;51.366;12.348;2023-04-25T06:36:03;7.00;99.90
18191;DHT22;47004;51.366;12.348;2023-04-25T06:38:05;7.10;99.90
18191;DHT22;47004;51.366;12.348;2023-04-25T06:40:08;7.10;99.90
18191;DHT22;47004;51.366;12.348;2023-04-25T06:42:11;7.20;99.90
18191;DHT22;47004;51.366;12.348;2023-04-25T06:44:12;7.20;99.90
18191;DHT22;47004;51.366;12.348;2023-04-25T06:46:14;7.30;99.90
18191;DHT22;47004;51.366;12.348;2023-04-25T06:48:18;7.40;99.90
18191;DHT22;47004;51.366;12.348;2023-04-25T06:50:20;7.50;99.90
18191;DHT22;47004;51.366;12.348;2023-04-25T06:52:22;7.60;99.90
18191;DHT22;47004;51.366;12.348;2023-04-25T06:54:24;7.70;99.90
18191;DHT22;47004;51.366;12.348;2023-04-25T06:56:28;7.80;99.90
18191;DHT22;47004;51.366;12.348;2023-04-25T06:58:31;7.80;99.90
18191;DHT22;47004;51.366;12.348;2023-04-25T07:00:33;7.90;99.90
18191;DHT22;47004;51.366;12.348;2023-04-25T07:02:35;8.00;99.90
18191;DHT22;47004;51.366;12.348;2023-04-25T07:04:38;8.00;99.90
18191;DHT22;47004;51.366;12.348;2023-04-25T07:06:40;8.00;99.90
18191;DHT22;47004;51.366;12.348;2023-04-25T07:08:43;8.10;99.90
18191;DHT22;47004;51.366;12.348;2023-04-25T07:10:45;8.10;99.90
18191;DHT22;47004;51.366;12.348;2023-04-25T07:12:47;8.10;99.90
18191;DHT22;47004;51.366;12.348;2023-04-25T07:14:49;8.10;99.90
18191;DHT22;47004;51.366;12.348;2023-04-25T07:16:51;8.20;99.90
18191;DHT22;47004;51.366;12.348;2023-04-25T07:18:53;8.30;99.90
18191;DHT22;47004;51.366;12.348;2023-04-25T07:20:56;8.20;99.90
18191;DHT22;47004;51.366;12.348;2023-04-25T07:22:58;8.20;99.90
18191;DHT22;47004;51.366;12.348;2023-04-25T07:25:00;8.30;99.90
18191;DHT22;47004;51.366;12.348;2023-04-25T07:27:03;8.30;99.90
18191;DHT22;47004;51.366;12.348;2023-04-25T07:29:05;8.30;99.90
18191;DHT22;47004;51.366;12.348;2023-04-25T07:31:07;8.30;99.90
18191;DHT22;47004;51.366;12.348;2023-04-25T07:33:09;8.30;99.90
18191;DHT22;47004;51.366;12.348;2023-04-25T07:35:11;8.40;99.90
18191;DHT22;47004;51.366;12.348;2023-04-25T07:37:14;8.40;99.90
18191;DHT22;47004;51.366;12.348;2023-04-25T07:39:16;8.30;99.90
18191;DHT22;47004;51.366;12.348;2023-04-25T07:41:18;8.40;99.90
18191;DHT22;47004;51.366;12.348;2023-04-25T07:43:20;8.40;99.90
18191;DHT22;47004;51.366;12.348;2023-04-25T07:45:22;8.30;99.90
18191;DHT22;47004;51.366;12.348;2023-04-25T07:47:24;8.30;99.90
18191;DHT22;47004;51.366;12.348;2023-04-25T07:49:26;8.40;99.90
18191;DHT22;47004;51.366;12.348;2023-04-25T07:51:28;8.30;99.90
18191;DHT22;47004;51.366;12.348;2023-04-25T07:53:31;8.30;99.90
18191;DHT22;47004;51.366;12.348;2023-04-25T07:55:35;8.30;99.90
18191;DHT22;47004;51.366;12.348;2023-04-25T07:57:40;8.30;99.90
18191;DHT22;47004;51.366;12.348;2023-04-25T07:59:42;8.30;99.90
18191;DHT22;47004;51.366;12.348;2023-04-25T08:01:44;8.30;99.90
18191;DHT22;47004;51.366;12.348;2023-04-25T08:03:49;8.20;99.90
18191;DHT22;47004;51.366;12.348;2023-04-25T08:05:51;8.30;99.90
18191;DHT22;47004;51.366;12.348;2023-04-25T08:07:53;8.30;99.90
18191;DHT22;47004;51.366;12.348;2023-04-25T08:09:56;8.30;99.90
18191;DHT22;47004;51.366;12.348;2023-04-25T08:11:58;8.30;99.90
18191;DHT22;47004;51.366;12.348;2023-04-25T08:14:01;8.40;99.90
18191;DHT22;47004;51.366;12.348;2023-04-25T08:16:03;8.30;99.90
18191;DHT22;47004;51.366;12.348;2023-04-25T08:18:05;8.50;99.90
18191;DHT22;47004;51.366;12.348;2023-04-25T08:20:08;8.50;99.90
18191;DHT22;47004;51.366;12.348;2023-04-25T08:22:10;8.60;99.90
18191;DHT22;47004;51.366;12.348;2023-04-25T08:24:13;8.60;99.90
18191;DHT22;47004;51.366;12.348;2023-04-25T08:26:16;8.70;99.90
18191;DHT22;47004;51.366;12.348;2023-04-25T08:28:18;8.80;99.90
18191;DHT22;47004;51.366;12.348;2023-04-25T08:30:20;8.80;99.90
18191;DHT22;47004;51.366;12.348;2023-04-25T08:32:22;8.90;99.90
18191;DHT22;47004;51.366;12.348;2023-04-25T08:34:24;9.00;99.90
18191;DHT22;47004;51.366;12.348;2023-04-25T08:36:27;9.00;99.90
18191;DHT22;47004;51.366;12.348;2023-04-25T08:38:29;9.10;99.90
18191;DHT22;47004;51.366;12.348;2023-04-25T08:40:37;9.10;99.90
18191;DHT22;47004;51.366;12.348;2023-04-25T08:42:42;9.10;99.90
18191;DHT22;47004;51.366;12.348;2023-04-25T08:44:44;9.20;99.90
18191;DHT22;47004;51.366;12.348;2023-04-25T08:46:49;9.20;99.90
18191;DHT22;47004;51.366;12.348;2023-04-25T08:48:53;9.20;99.90
18191;DHT22;47004;51.366;12.348;2023-04-25T08:51:01;9.30;99.90
18191;DHT22;47004;51.366;12.348;2023-04-25T08:53:04;9.40;99.90
18191;DHT22;47004;51.366;12.348;2023-04-25T08:55:12;9.40;99.90
18191;DHT22;47004;51.366;12.348;2023-04-25T08:57:14;9.40;99.90
18191;DHT22;47004;51.366;12.348;2023-04-25T08:59:18;9.40;99.90
18191;DHT22;47004;51.366;12.348;2023-04-25T09:01:20;9.50;99.90
18191;DHT22;47004;51.366;12.348;2023-04-25T09:03:22;9.50;99.90
18191;DHT22;47004;51.366;12.348;2023-04-25T09:05:25;9.50;99.90
18191;DHT22;47004;51.366;12.348;2023-04-25T09:07:26;9.60;99.90
18191;DHT22;47004;51.366;12.348;2023-04-25T09:09:29;9.60;99.90
18191;DHT22;47004;51.366;12.348;2023-04-25T09:11:32;9.70;99.90
18191;DHT22;47004;51.366;12.348;2023-04-25T09:13:34;9.70;99.90
18191;DHT22;47004;51.366;12.348;2023-04-25T09:15:49;9.80;99.90
18191;DHT22;47004;51.366;12.348;2023-04-25T09:17:57;9.80;99.90
18191;DHT22;47004;51.366;12.348;2023-04-25T09:20:06;9.90;99.90
18191;DHT22;47004;51.366;12.348;2023-04-25T09:22:09;9.90;99.90
18191;DHT22;47004;51.366;12.348;2023-04-25T09:24:11;10.00;99.90
18191;DHT22;47004;51.366;12.348;2023-04-25T09:26:14;10.10;99.90
18191;DHT22;47004;51.366;12.348;2023-04-25T09:28:23;10.10;99.90
18191;DHT22;47004;51.366;12.348;2023-04-25T09:30:29;10.20;99.90
18191;DHT22;47004;51.366;12.348;2023-04-25T09:32:33;10.20;99.90
18191;DHT22;47004;51.366;12.348;2023-04-25T09:34:39;10.20;99.90
18191;DHT22;47004;51.366;12.348;2023-04-25T09:36:41;10.10;99.90
18191;DHT22;47004;51.366;12.348;2023-04-25T09:38:45;10.00;99.90
18191;DHT22;47004;51.366;12.348;2023-04-25T09:40:48;9.90;99.90
18191;DHT22;47004;51.366;12.348;2023-04-25T09:42:51;9.80;99.90
18191;DHT22;47004;51.366;12.348;2023-04-25T09:44:54;9.80;99.90
18191;DHT22;47004;51.366;12.348;2023-04-25T09:46:56;9.70;99.90
18191;DHT22;47004;51.366;12.348;2023-04-25T09:49:06;9.60;99.90
18191;DHT22;47004;51.366;12.348;2023-04-25T09:51:10;9.60;99.90
18191;DHT22;47004;51.366;12.348;2023-04-25T09:53:14;9.60;99.90
18191;DHT22;47004;51.366;12.348;2023-04-25T09:55:16;9.70;99.90
18191;DHT22;47004;51.366;12.348;2023-04-25T09:57:19;9.70;99.90
18191;DHT22;47004;51.366;12.348;2023-04-25T09:59:22;9.80;99.90
18191;DHT22;47004;51.366;12.348;2023-04-25T10:01:25;9.80;99.90
18191;DHT22;47004;51.366;12.348;2023-04-25T10:03:29;9.70;99.90
18191;DHT22;47004;51.366;12.348;2023-04-25T10:05:34;9.70;99.90
18191;DHT22;47004;51.366;12.348;2023-04-25T10:07:38;9.60;99.90
18191;DHT22;47004;51.366;12.348;2023-04-25T10:09:41;9.60;99.90
18191;DHT22;47004;51.366;12.348;2023-04-25T10:11:47;9.60;99.90
18191;DHT22;47004;51.366;12.348;2023-04-25T10:13:50;9.60;99.90
18191;DHT22;47004;51.366;12.348;2023-04-25T10:15:53;9.60;99.90
18191;DHT22;47004;51.366;12.348;2023-04-25T10:17:56;9.60;99.90
18191;DHT22;47004;51.366;12.348;2023-04-25T10:20:00;9.70;99.90
18191;DHT22;47004;51.366;12.348;2023-04-25T10:22:08;9.70;99.90
18191;DHT22;47004;51.366;12.348;2023-04-25T10:24:13;9.70;99.90
18191;DHT22;47004;51.366;12.348;2023-04-25T10:26:16;9.80;99.90
18191;DHT22;47004;51.366;12.348;2023-04-25T10:28:19;9.90;99.90
18191;DHT22;47004;51.366;12.348;2023-04-25T10:30:21;10.00;99.90
18191;DHT22;47004;51.366;12.348;2023-04-25T10:32:24;10.00;99.90
18191;DHT22;47004;51.366;12.348;2023-04-25T10:34:38;10.00;99.90
18191;DHT22;47004;51.366;12.348;2023-04-25T10:36:42;10.00;99.90
18191;DHT22;47004;51.366;12.348;2023-04-25T10:38:46;10.00;99.90
18191;DHT22;47004;51.366;12.348;2023-04-25T10:41:03;10.00;99.90
18191;DHT22;47004;51.366;12.348;2023-04-25T10:43:34;9.90;99.90
18191;DHT22;47004;51.366;12.348;2023-04-25T10:45:51;9.90;99.90
18191;DHT22;47004;51.366;12.348;2023-04-25T10:47:52;9.80;99.90
18191;DHT22;47004;51.366;12.348;2023-04-25T10:50:04;9.80;99.90
18191;DHT22;47004;51.366;12.348;2023-04-25T10:52:18;9.70;99.90
18191;DHT22;47004;51.366;12.348;2023-04-25T10:54:22;9.70;99.90
18191;DHT22;47004;51.366;12.348;2023-04-25T10:56:28;9.70;99.90
18191;DHT22;47004;51.366;12.348;2023-04-25T10:58:30;9.70;99.90
18191;DHT22;47004;51.366;12.348;2023-04-25T11:00:35;9.60;99.90
18191;DHT22;47004;51.366;12.348;2023-04-25T11:02:41;9.70;99.90
18191;DHT22;47004;51.366;12.348;2023-04-25T11:04:45;9.70;99.90
18191;DHT22;47004;51.366;12.348;2023-04-25T11:06:58;9.60;99.90
18191;DHT22;47004;51.366;12.348;2023-04-25T11:09:01;9.60;99.90
18191;DHT22;47004;51.366;12.348;2023-04-25T11:11:04;9.60;99.90
18191;DHT22;47004;51.366;12.348;2023-04-25T11:13:06;9.60;99.90
18191;DHT22;47004;51.366;12.348;2023-04-25T11:15:09;9.60;99.90
18191;DHT22;47004;51.366;12.348;2023-04-25T11:17:11;9.60;99.90
18191;DHT22;47004;51.366;12.348;2023-04-25T11:19:13;9.60;99.90
18191;DHT22;47004;51.366;12.348;2023-04-25T11:21:16;9.60;99.90
18191;DHT22;47004;51.366;12.348;2023-04-25T11:23:18;9.60;99.90
18191;DHT22;47004;51.366;12.348;2023-04-25T11:25:20;9.60;99.90
18191;DHT22;47004;51.366;12.348;2023-04-25T11:27:23;9.50;99.90
18191;DHT22;47004;51.366;12.348;2023-04-25T11:29:26;9.50;99.90
18191;DHT22;47004;51.366;12.348;2023-04-25T11:31:29;9.60;99.90
18191;DHT22;47004;51.366;12.348;2023-04-25T11:33:31;9.60;99.90
18191;DHT22;47004;51.366;12.348;2023-04-25T11:35:33;9.60;99.90
18191;DHT22;47004;51.366;12.348;2023-04-25T11:37:35;9.60;99.90
18191;DHT22;47004;51.366;12.348;2023-04-25T11:39:37;9.60;99.90
18191;DHT22;47004;51.366;12.348;2023-04-25T11:41:39;9.70;99.90
18191;DHT22;47004;51.366;12.348;2023-04-25T11:43:43;9.70;99.90
18191;DHT22;47004;51.366;12.348;2023-04-25T11:45:46;9.70;99.90
18191;DHT22;47004;51.366;12.348;2023-04-25T11:47:49;10.00;99.90
18191;DHT22;47004;51.366;12.348;2023-04-25T11:49:53;9.80;99.90
18191;DHT22;47004;51.366;12.348;2023-04-25T11:51:55;9.80;99.90
18191;DHT22;47004;51.366;12.348;2023-04-25T11:53:57;9.80;99.90
18191;DHT22;47004;51.366;12.348;2023-04-25T11:55:59;9.90;99.90
18191;DHT22;47004;51.366;12.348;2023-04-25T11:58:01;9.90;99.90
18191;DHT22;47004;51.366;12.348;2023-04-25T12:00:13;9.90;99.90
18191;DHT22;47004;51.366;12.348;2023-04-25T12:02:24;9.90;99.90
18191;DHT22;47004;51.366;12.348;2023-04-25T12:04:30;9.90;99.90
18191;DHT22;47004;51.366;12.348;2023-04-25T12:06:37;9.90;99.90
18191;DHT22;47004;51.366;12.348;2023-04-25T12:08:59;9.90;99.90
18191;DHT22;47004;51.366;12.348;2023-04-25T12:11:01;9.90;99.90
18191;DHT22;47004;51.366;12.348;2023-04-25T12:13:18;9.90;99.90
18191;DHT22;47004;51.366;12.348;2023-04-25T12:15:25;10.00;99.90
18191;DHT22;47004;51.366;12.348;2023-04-25T12:17:28;10.20;99.90
18191;DHT22;47004;51.366;12.348;2023-04-25T12:19:34;10.50;99.90
18191;DHT22;47004;51.366;12.348;2023-04-25T12:21:36;10.70;99.90
18191;DHT22;47004;51.366;12.348;2023-04-25T12:23:38;10.80;99.90
18191;DHT22;47004;51.366;12.348;2023-04-25T12:25:43;10.90;99.90
18191;DHT22;47004;51.366;12.348;2023-04-25T12:27:47;10.90;99.90
18191;DHT22;47004;51.366;12.348;2023-04-25T12:29:51;10.80;99.90
18191;DHT22;47004;51.366;12.348;2023-04-25T12:31:55;10.70;99.90
18191;DHT22;47004;51.366;12.348;2023-04-25T12:33:57;10.60;99.90
18191;DHT22;47004;51.366;12.348;2023-04-25T12:36:00;10.50;99.90
18191;DHT22;47004;51.366;12.348;2023-04-25T12:38:04;10.50;99.90
18191;DHT22;47004;51.366;12.348;2023-04-25T12:40:07;10.40;99.90
18191;DHT22;47004;51.366;12.348;2023-04-25T12:42:09;10.30;99.90
18191;DHT22;47004;51.366;12.348;2023-04-25T12:44:12;10.40;99.90
18191;DHT22;47004;51.366;12.348;2023-04-25T12:46:14;10.30;99.90
18191;DHT22;47004;51.366;12.348;2023-04-25T12:48:25;10.30;99.90
18191;DHT22;47004;51.366;12.348;2023-04-25T12:50:27;10.30;99.90
18191;DHT22;47004;51.366;12.348;2023-04-25T12:52:29;10.30;95.70
18191;DHT22;47004;51.366;12.348;2023-04-25T12:54:31;10.30;95.30
18191;DHT22;47004;51.366;12.348;2023-04-25T12:56:33;10.30;90.50